Seishin Maru — JL6275 — position and weather

sailwx.info

Track history (hours):
 
Tides and Currents Weather Stations Pressure Air Temp Water Temp Dewpoint Dewpoint Depression Visibility Wind Speed Wind Dir Waves Ship Positions

Seishin Maru

Last reported at 2017-Sep-03 17:42 UTC. Time now 2017-Sep-24 04:56 UTC.
Position N 34°51' E 139°38'.
Warning: this ship's position is 20 days out of date.

Length 76 m; draft 4.2 m.

Type: Cargo ship. MMSI: 431500543.

Date/timePositionNaut miles runAvg speedWind from/ knotsBaromVisibWave heightAir tempDewpointWater temp
2017-Sep-03 17:42N 34°51' E 139°38'4 9.8
2017-Sep-03 17:20N 34°50' E 139°34'231 8.4
2017-Sep-02 13:51N 33°59' E 135°01'511.5
2017-Sep-02 13:25N 34°04' E 135°00'511.3
2017-Sep-02 13:00N 34°09' E 134°60'611.2
2017-Sep-02 12:30N 34°14' E 134°59'15 9.5
2017-Sep-02 10:54N 34°27' E 135°09'410.5
2017-Sep-02 10:30N 34°30' E 135°13'510.3
2017-Sep-02 09:59N 34°33' E 135°18'510.5
2017-Sep-02 09:30N 34°36' E 135°23'4 7.7
2017-Sep-02 08:59N 34°35' E 135°27'0 0.0
2017-Sep-02 00:27N 34°35' E 135°28'0 0.0
2017-Sep-01 23:52N 34°35' E 135°28'0 0.0
2017-Sep-01 23:12N 34°35' E 135°28'0 0.0
2017-Sep-01 22:54N 34°35' E 135°28'0 0.0
2017-Sep-01 22:30N 34°35' E 135°28'0 0.0
2017-Sep-01 22:00N 34°35' E 135°28'0 0.0
2017-Sep-01 21:26N 34°35' E 135°28'0 0.0
2017-Sep-01 20:55N 34°35' E 135°28'0 0.0
2017-Sep-01 20:21N 34°35' E 135°28'0 0.0
2017-Sep-01 19:58N 34°35' E 135°28'0 0.0
2017-Sep-01 19:27N 34°35' E 135°28'0 0.0
2017-Sep-01 18:09N 34°35' E 135°28'0 0.0
2017-Sep-01 17:43N 34°35' E 135°28'0 0.0
2017-Sep-01 17:21N 34°35' E 135°28'0 0.0
2017-Sep-01 09:26N 34°35' E 135°28'0 0.0
2017-Sep-01 08:54N 34°35' E 135°28'0 0.0
2017-Sep-01 08:26N 34°35' E 135°28'0 0.0
2017-Sep-01 08:00N 34°35' E 135°28'0 0.0
2017-Sep-01 02:04N 34°35' E 135°28'0 0.9
2017-Sep-01 02:00N 34°35' E 135°28'0 0.2
2017-Sep-01 01:30N 34°35' E 135°28'0 0.0
2017-Sep-01 01:00N 34°35' E 135°28'0 0.0
2017-Sep-01 00:30N 34°35' E 135°28'0 0.0
2017-Sep-01 00:00N 34°35' E 135°28'0 0.0
2017-Aug-31 23:30N 34°35' E 135°28'0 0.0
2017-Aug-31 23:00N 34°35' E 135°28'0 0.0
2017-Aug-31 22:30N 34°35' E 135°28'0 0.0
2017-Aug-31 22:00N 34°35' E 135°28'0 0.0
2017-Aug-31 21:30N 34°35' E 135°28'0 0.0
2017-Aug-31 21:00N 34°35' E 135°28'0 0.0
2017-Aug-31 20:30N 34°35' E 135°28'0 0.0
2017-Aug-31 20:00N 34°35' E 135°28'0 0.0
2017-Aug-31 19:30N 34°35' E 135°28'0 0.0
2017-Aug-31 19:00N 34°35' E 135°28'0 0.0
2017-Aug-31 18:30N 34°35' E 135°28'0 0.0
2017-Aug-31 18:00N 34°35' E 135°28'0 0.0
2017-Aug-31 17:30N 34°35' E 135°28'0 0.0
2017-Aug-31 17:00N 34°35' E 135°28'0 0.0
2017-Aug-31 16:30N 34°35' E 135°28'0 0.0
2017-Aug-31 15:59N 34°35' E 135°28'0 0.0
2017-Aug-31 15:30N 34°35' E 135°28'0 0.0
2017-Aug-31 14:59N 34°35' E 135°28'0 0.0
2017-Aug-31 14:30N 34°35' E 135°28'0 0.0
2017-Aug-31 14:00N 34°35' E 135°28'0 0.0
2017-Aug-31 13:30N 34°35' E 135°28'0 0.0
2017-Aug-31 13:00N 34°35' E 135°28'0 0.0
2017-Aug-31 12:30N 34°35' E 135°28'0 0.0
2017-Aug-31 12:00N 34°35' E 135°28'0 0.0
2017-Aug-31 11:30N 34°35' E 135°28'0 0.0
2017-Aug-31 11:00N 34°35' E 135°28'0 0.0
2017-Aug-31 10:28N 34°35' E 135°28'0 0.0
2017-Aug-31 10:00N 34°35' E 135°28'0 0.0
2017-Aug-31 09:30N 34°35' E 135°28'0 0.0
2017-Aug-31 09:00N 34°35' E 135°28'0 0.0
2017-Aug-31 08:30N 34°35' E 135°28'0 0.0
2017-Aug-31 08:00N 34°35' E 135°28'0 0.0
2017-Aug-31 07:30N 34°35' E 135°28'0 0.0
2017-Aug-31 07:00N 34°35' E 135°28'0 0.0
2017-Aug-31 06:30N 34°35' E 135°28'0 0.0
2017-Aug-31 06:00N 34°35' E 135°28'0 0.0
2017-Aug-31 05:30N 34°35' E 135°28'0 0.0
2017-Aug-31 05:00N 34°35' E 135°28'0 0.0
2017-Aug-31 04:30N 34°35' E 135°28'0 0.0
2017-Aug-31 03:59N 34°35' E 135°28'0 0.0
2017-Aug-31 03:30N 34°35' E 135°28'0 0.0
2017-Aug-31 02:59N 34°35' E 135°28'0 0.0
2017-Aug-31 02:30N 34°35' E 135°28'0 0.0
2017-Aug-31 02:00N 34°35' E 135°28'0 0.0
2017-Aug-31 01:30N 34°35' E 135°28'0 0.0
2017-Aug-31 01:00N 34°35' E 135°28'0 0.0
2017-Aug-31 00:30N 34°35' E 135°28'0 0.0
2017-Aug-31 00:00N 34°35' E 135°28'0 0.0
2017-Aug-30 23:30N 34°35' E 135°28'0 0.0
2017-Aug-30 23:00N 34°35' E 135°28'0 0.0
2017-Aug-30 22:30N 34°35' E 135°28'2 3.4
2017-Aug-30 22:00N 34°35' E 135°26'3 5.3
2017-Aug-30 21:29N 34°34' E 135°23'3 6.6
2017-Aug-30 21:00N 34°31' E 135°24'0 0.0
2017-Aug-30 20:30N 34°31' E 135°24'0 0.0
2017-Aug-30 20:00N 34°31' E 135°24'0 0.0
2017-Aug-30 19:30N 34°31' E 135°24'0 0.0
2017-Aug-30 19:00N 34°31' E 135°24'0 0.0
2017-Aug-30 18:30N 34°31' E 135°24'0 0.0
2017-Aug-30 18:00N 34°31' E 135°24'0 0.0
2017-Aug-30 17:29N 34°31' E 135°24'0 0.0
2017-Aug-30 17:00N 34°31' E 135°24'0 0.0
2017-Aug-30 16:30N 34°31' E 135°24'0 0.0
2017-Aug-30 16:00N 34°31' E 135°24'0 0.0
2017-Aug-30 15:30N 34°31' E 135°24'0 0.0
2017-Aug-30 15:00N 34°31' E 135°24'0 0.0
2017-Aug-30 14:30N 34°31' E 135°24'0 0.0
2017-Aug-30 14:00N 34°31' E 135°24'0 0.0
2017-Aug-30 13:30N 34°31' E 135°24'0 0.0
2017-Aug-30 13:00N 34°31' E 135°24'0 0.0
2017-Aug-30 12:30N 34°31' E 135°24'0 0.0
2017-Aug-30 12:00N 34°31' E 135°24'0 0.0
2017-Aug-30 11:30N 34°31' E 135°24'0 0.0
2017-Aug-30 11:00N 34°31' E 135°24'0 0.0
2017-Aug-30 10:30N 34°31' E 135°24'0 0.0
2017-Aug-30 10:00N 34°31' E 135°24'0 0.0
2017-Aug-30 09:30N 34°31' E 135°24'0 0.0
2017-Aug-30 09:00N 34°31' E 135°24'0 0.0
2017-Aug-30 08:27N 34°31' E 135°24'0 0.0
2017-Aug-30 07:49N 34°31' E 135°24'0 0.0
2017-Aug-30 07:30N 34°31' E 135°24'0 0.0
2017-Aug-30 06:45N 34°31' E 135°24'0 0.0
2017-Aug-30 05:38N 34°31' E 135°24'1 5.0
2017-Aug-30 05:23N 34°32' E 135°24'410.5
2017-Aug-30 05:00N 34°31' E 135°19'510.6
2017-Aug-30 04:30N 34°28' E 135°14'510.7
2017-Aug-30 04:00N 34°25' E 135°09'510.4
2017-Aug-30 03:28N 34°21' E 135°04'710.1
2017-Aug-30 02:46N 34°15' E 134°59'310.5
2017-Aug-30 02:30N 34°12' E 134°59'  
Track history (hours):
 
Tides and Currents Weather Stations Pressure Air Temp Water Temp Dewpoint Dewpoint Depression Visibility Wind Speed Wind Dir Waves Ship Positions

Seishin Maru

Last reported at 2017-Sep-03 17:42 UTC. Time now 2017-Sep-24 04:56 UTC.
Position N 34°51' E 139°38'.
Warning: this ship's position is 20 days out of date.

Length 76 m; draft 4.2 m.

Type: Cargo ship. MMSI: 431500543.

Date/timePositionNaut miles runAvg speedWind from/ knotsBaromVisibWave heightAir tempDewpointWater temp
2017-Sep-03 17:42N 34°51' E 139°38'4 9.8
2017-Sep-03 17:20N 34°50' E 139°34'231 8.4
2017-Sep-02 13:51N 33°59' E 135°01'511.5
2017-Sep-02 13:25N 34°04' E 135°00'511.3
2017-Sep-02 13:00N 34°09' E 134°60'611.2
2017-Sep-02 12:30N 34°14' E 134°59'15 9.5
2017-Sep-02 10:54N 34°27' E 135°09'410.5
2017-Sep-02 10:30N 34°30' E 135°13'510.3
2017-Sep-02 09:59N 34°33' E 135°18'510.5
2017-Sep-02 09:30N 34°36' E 135°23'4 7.7
2017-Sep-02 08:59N 34°35' E 135°27'0 0.0
2017-Sep-02 00:27N 34°35' E 135°28'0 0.0
2017-Sep-01 23:52N 34°35' E 135°28'0 0.0
2017-Sep-01 23:12N 34°35' E 135°28'0 0.0
2017-Sep-01 22:54N 34°35' E 135°28'0 0.0
2017-Sep-01 22:30N 34°35' E 135°28'0 0.0
2017-Sep-01 22:00N 34°35' E 135°28'0 0.0
2017-Sep-01 21:26N 34°35' E 135°28'0 0.0
2017-Sep-01 20:55N 34°35' E 135°28'0 0.0
2017-Sep-01 20:21N 34°35' E 135°28'0 0.0
2017-Sep-01 19:58N 34°35' E 135°28'0 0.0
2017-Sep-01 19:27N 34°35' E 135°28'0 0.0
2017-Sep-01 18:09N 34°35' E 135°28'0 0.0
2017-Sep-01 17:43N 34°35' E 135°28'0 0.0
2017-Sep-01 17:21N 34°35' E 135°28'0 0.0
2017-Sep-01 09:26N 34°35' E 135°28'0 0.0
2017-Sep-01 08:54N 34°35' E 135°28'0 0.0
2017-Sep-01 08:26N 34°35' E 135°28'0 0.0
2017-Sep-01 08:00N 34°35' E 135°28'0 0.0
2017-Sep-01 02:04N 34°35' E 135°28'0 0.9
2017-Sep-01 02:00N 34°35' E 135°28'0 0.2
2017-Sep-01 01:30N 34°35' E 135°28'0 0.0
2017-Sep-01 01:00N 34°35' E 135°28'0 0.0
2017-Sep-01 00:30N 34°35' E 135°28'0 0.0
2017-Sep-01 00:00N 34°35' E 135°28'0 0.0
2017-Aug-31 23:30N 34°35' E 135°28'0 0.0
2017-Aug-31 23:00N 34°35' E 135°28'0 0.0
2017-Aug-31 22:30N 34°35' E 135°28'0 0.0
2017-Aug-31 22:00N 34°35' E 135°28'0 0.0
2017-Aug-31 21:30N 34°35' E 135°28'0 0.0
2017-Aug-31 21:00N 34°35' E 135°28'0 0.0
2017-Aug-31 20:30N 34°35' E 135°28'0 0.0
2017-Aug-31 20:00N 34°35' E 135°28'0 0.0
2017-Aug-31 19:30N 34°35' E 135°28'0 0.0
2017-Aug-31 19:00N 34°35' E 135°28'0 0.0
2017-Aug-31 18:30N 34°35' E 135°28'0 0.0
2017-Aug-31 18:00N 34°35' E 135°28'0 0.0
2017-Aug-31 17:30N 34°35' E 135°28'0 0.0
2017-Aug-31 17:00N 34°35' E 135°28'0 0.0
2017-Aug-31 16:30N 34°35' E 135°28'0 0.0
2017-Aug-31 15:59N 34°35' E 135°28'0 0.0
2017-Aug-31 15:30N 34°35' E 135°28'0 0.0
2017-Aug-31 14:59N 34°35' E 135°28'0 0.0
2017-Aug-31 14:30N 34°35' E 135°28'0 0.0
2017-Aug-31 14:00N 34°35' E 135°28'0 0.0
2017-Aug-31 13:30N 34°35' E 135°28'0 0.0
2017-Aug-31 13:00N 34°35' E 135°28'0 0.0
2017-Aug-31 12:30N 34°35' E 135°28'0 0.0
2017-Aug-31 12:00N 34°35' E 135°28'0 0.0
2017-Aug-31 11:30N 34°35' E 135°28'0 0.0
2017-Aug-31 11:00N 34°35' E 135°28'0 0.0
2017-Aug-31 10:28N 34°35' E 135°28'0 0.0
2017-Aug-31 10:00N 34°35' E 135°28'0 0.0
2017-Aug-31 09:30N 34°35' E 135°28'0 0.0
2017-Aug-31 09:00N 34°35' E 135°28'0 0.0
2017-Aug-31 08:30N 34°35' E 135°28'0 0.0
2017-Aug-31 08:00N 34°35' E 135°28'0 0.0
2017-Aug-31 07:30N 34°35' E 135°28'0 0.0
2017-Aug-31 07:00N 34°35' E 135°28'0 0.0
2017-Aug-31 06:30N 34°35' E 135°28'0 0.0
2017-Aug-31 06:00N 34°35' E 135°28'0 0.0
2017-Aug-31 05:30N 34°35' E 135°28'0 0.0
2017-Aug-31 05:00N 34°35' E 135°28'0 0.0
2017-Aug-31 04:30N 34°35' E 135°28'0 0.0
2017-Aug-31 03:59N 34°35' E 135°28'0 0.0
2017-Aug-31 03:30N 34°35' E 135°28'0 0.0
2017-Aug-31 02:59N 34°35' E 135°28'0 0.0
2017-Aug-31 02:30N 34°35' E 135°28'0 0.0
2017-Aug-31 02:00N 34°35' E 135°28'0 0.0
2017-Aug-31 01:30N 34°35' E 135°28'0 0.0
2017-Aug-31 01:00N 34°35' E 135°28'0 0.0
2017-Aug-31 00:30N 34°35' E 135°28'0 0.0
2017-Aug-31 00:00N 34°35' E 135°28'0 0.0
2017-Aug-30 23:30N 34°35' E 135°28'0 0.0
2017-Aug-30 23:00N 34°35' E 135°28'0 0.0
2017-Aug-30 22:30N 34°35' E 135°28'2 3.4
2017-Aug-30 22:00N 34°35' E 135°26'3 5.3
2017-Aug-30 21:29N 34°34' E 135°23'3 6.6
2017-Aug-30 21:00N 34°31' E 135°24'0 0.0
2017-Aug-30 20:30N 34°31' E 135°24'0 0.0
2017-Aug-30 20:00N 34°31' E 135°24'0 0.0
2017-Aug-30 19:30N 34°31' E 135°24'0 0.0
2017-Aug-30 19:00N 34°31' E 135°24'0 0.0
2017-Aug-30 18:30N 34°31' E 135°24'0 0.0
2017-Aug-30 18:00N 34°31' E 135°24'0 0.0
2017-Aug-30 17:29N 34°31' E 135°24'0 0.0
2017-Aug-30 17:00N 34°31' E 135°24'0 0.0
2017-Aug-30 16:30N 34°31' E 135°24'0 0.0
2017-Aug-30 16:00N 34°31' E 135°24'0 0.0
2017-Aug-30 15:30N 34°31' E 135°24'0 0.0
2017-Aug-30 15:00N 34°31' E 135°24'0 0.0
2017-Aug-30 14:30N 34°31' E 135°24'0 0.0
2017-Aug-30 14:00N 34°31' E 135°24'0 0.0
2017-Aug-30 13:30N 34°31' E 135°24'0 0.0
2017-Aug-30 13:00N 34°31' E 135°24'0 0.0
2017-Aug-30 12:30N 34°31' E 135°24'0 0.0
2017-Aug-30 12:00N 34°31' E 135°24'0 0.0
2017-Aug-30 11:30N 34°31' E 135°24'0 0.0
2017-Aug-30 11:00N 34°31' E 135°24'0 0.0
2017-Aug-30 10:30N 34°31' E 135°24'0 0.0
2017-Aug-30 10:00N 34°31' E 135°24'0 0.0
2017-Aug-30 09:30N 34°31' E 135°24'0 0.0
2017-Aug-30 09:00N 34°31' E 135°24'0 0.0
2017-Aug-30 08:27N 34°31' E 135°24'0 0.0
2017-Aug-30 07:49N 34°31' E 135°24'0 0.0
2017-Aug-30 07:30N 34°31' E 135°24'0 0.0
2017-Aug-30 06:45N 34°31' E 135°24'0 0.0
2017-Aug-30 05:38N 34°31' E 135°24'1 5.0
2017-Aug-30 05:23N 34°32' E 135°24'410.5
2017-Aug-30 05:00N 34°31' E 135°19'510.6
2017-Aug-30 04:30N 34°28' E 135°14'510.7
2017-Aug-30 04:00N 34°25' E 135°09'510.4
2017-Aug-30 03:28N 34°21' E 135°04'710.1
2017-Aug-30 02:46N 34°15' E 134°59'310.5
2017-Aug-30 02:30N 34°12' E 134°59'  

Dump ship's entire track history